sensor_id;sensor_type;location;lat;lon;timestamp;P1;durP1;ratioP1;P2;durP2;ratioP2
52866;SDS011;38739;53.324;6.862;2023-06-22T00:00:48;27.70;;;24.25;;
52866;SDS011;38739;53.324;6.862;2023-06-22T00:03:14;27.77;;;24.25;;
52866;SDS011;38739;53.324;6.862;2023-06-22T00:05:40;28.77;;;23.90;;
52866;SDS011;38739;53.324;6.862;2023-06-22T00:08:06;30.63;;;24.80;;
52866;SDS011;38739;53.324;6.862;2023-06-22T00:10:32;31.40;;;23.88;;
52866;SDS011;38739;53.324;6.862;2023-06-22T00:12:57;26.35;;;22.58;;
52866;SDS011;38739;53.324;6.862;2023-06-22T00:15:23;26.35;;;23.33;;
52866;SDS011;38739;53.324;6.862;2023-06-22T00:17:51;31.02;;;24.98;;
52866;SDS011;38739;53.324;6.862;2023-06-22T00:20:17;28.25;;;22.42;;
52866;SDS011;38739;53.324;6.862;2023-06-22T00:22:43;23.20;;;20.70;;
52866;SDS011;38739;53.324;6.862;2023-06-22T00:25:10;21.20;;;18.83;;
52866;SDS011;38739;53.324;6.862;2023-06-22T00:27:36;20.98;;;18.30;;
52866;SDS011;38739;53.324;6.862;2023-06-22T00:30:02;19.15;;;16.88;;
52866;SDS011;38739;53.324;6.862;2023-06-22T00:32:28;19.88;;;17.70;;
52866;SDS011;38739;53.324;6.862;2023-06-22T00:34:54;20.48;;;18.27;;
52866;SDS011;38739;53.324;6.862;2023-06-22T00:37:20;20.98;;;18.33;;
52866;SDS011;38739;53.324;6.862;2023-06-22T00:39:50;21.25;;;18.48;;
52866;SDS011;38739;53.324;6.862;2023-06-22T00:42:17;20.42;;;18.23;;
52866;SDS011;38739;53.324;6.862;2023-06-22T00:44:42;21.27;;;18.98;;
52866;SDS011;38739;53.324;6.862;2023-06-22T00:47:10;23.40;;;19.92;;
52866;SDS011;38739;53.324;6.862;2023-06-22T00:49:38;23.95;;;19.90;;
52866;SDS011;38739;53.324;6.862;2023-06-22T00:52:04;23.05;;;20.73;;
52866;SDS011;38739;53.324;6.862;2023-06-22T00:54:34;20.63;;;18.45;;
52866;SDS011;38739;53.324;6.862;2023-06-22T00:57:01;19.98;;;17.80;;
52866;SDS011;38739;53.324;6.862;2023-06-22T00:59:27;18.85;;;16.77;;
52866;SDS011;38739;53.324;6.862;2023-06-22T01:01:54;19.63;;;17.55;;
52866;SDS011;38739;53.324;6.862;2023-06-22T01:04:19;18.50;;;16.67;;
52866;SDS011;38739;53.324;6.862;2023-06-22T01:06:54;20.55;;;18.30;;
52866;SDS011;38739;53.324;6.862;2023-06-22T01:09:31;19.60;;;17.63;;
52866;SDS011;38739;53.324;6.862;2023-06-22T01:12:01;28.30;;;21.70;;
52866;SDS011;38739;53.324;6.862;2023-06-22T01:17:07;28.75;;;23.85;;
52866;SDS011;38739;53.324;6.862;2023-06-22T01:19:50;27.33;;;23.35;;
52866;SDS011;38739;53.324;6.862;2023-06-22T01:22:22;23.58;;;20.95;;
52866;SDS011;38739;53.324;6.862;2023-06-22T01:25:00;26.60;;;23.10;;
52866;SDS011;38739;53.324;6.862;2023-06-22T01:30:25;33.15;;;27.52;;
52866;SDS011;38739;53.324;6.862;2023-06-22T01:32:54;29.52;;;24.73;;
52866;SDS011;38739;53.324;6.862;2023-06-22T01:35:22;32.70;;;26.55;;
52866;SDS011;38739;53.324;6.862;2023-06-22T01:37:49;35.00;;;29.45;;
52866;SDS011;38739;53.324;6.862;2023-06-22T01:40:15;32.60;;;27.27;;
52866;SDS011;38739;53.324;6.862;2023-06-22T01:42:41;33.67;;;28.50;;
52866;SDS011;38739;53.324;6.862;2023-06-22T01:45:09;36.90;;;30.05;;
52866;SDS011;38739;53.324;6.862;2023-06-22T01:47:36;37.55;;;30.27;;
52866;SDS011;38739;53.324;6.862;2023-06-22T01:50:02;36.40;;;29.23;;
52866;SDS011;38739;53.324;6.862;2023-06-22T01:52:28;33.63;;;28.52;;
52866;SDS011;38739;53.324;6.862;2023-06-22T01:54:54;35.47;;;29.88;;
52866;SDS011;38739;53.324;6.862;2023-06-22T01:57:22;40.50;;;31.10;;
52866;SDS011;38739;53.324;6.862;2023-06-22T02:02:31;40.25;;;32.35;;
52866;SDS011;38739;53.324;6.862;2023-06-22T02:05:06;39.38;;;30.48;;
52866;SDS011;38739;53.324;6.862;2023-06-22T02:07:42;36.22;;;30.95;;
52866;SDS011;38739;53.324;6.862;2023-06-22T02:10:12;34.80;;;28.48;;
52866;SDS011;38739;53.324;6.862;2023-06-22T02:12:41;31.60;;;26.65;;
52866;SDS011;38739;53.324;6.862;2023-06-22T02:15:08;32.63;;;27.15;;
52866;SDS011;38739;53.324;6.862;2023-06-22T02:17:35;30.70;;;26.10;;
52866;SDS011;38739;53.324;6.862;2023-06-22T02:20:02;30.33;;;26.02;;
52866;SDS011;38739;53.324;6.862;2023-06-22T02:22:33;39.22;;;30.08;;
52866;SDS011;38739;53.324;6.862;2023-06-22T02:24:59;37.20;;;30.35;;
52866;SDS011;38739;53.324;6.862;2023-06-22T02:27:25;40.47;;;31.55;;
52866;SDS011;38739;53.324;6.862;2023-06-22T02:29:51;36.92;;;30.08;;
52866;SDS011;38739;53.324;6.862;2023-06-22T02:32:16;37.42;;;29.45;;
52866;SDS011;38739;53.324;6.862;2023-06-22T02:34:43;38.53;;;30.48;;
52866;SDS011;38739;53.324;6.862;2023-06-22T02:37:12;40.05;;;30.50;;
52866;SDS011;38739;53.324;6.862;2023-06-22T02:39:39;32.20;;;27.70;;
52866;SDS011;38739;53.324;6.862;2023-06-22T02:42:06;35.05;;;28.35;;
52866;SDS011;38739;53.324;6.862;2023-06-22T02:44:31;36.70;;;29.58;;
52866;SDS011;38739;53.324;6.862;2023-06-22T02:46:57;34.80;;;28.52;;
52866;SDS011;38739;53.324;6.862;2023-06-22T02:49:23;35.45;;;29.00;;
52866;SDS011;38739;53.324;6.862;2023-06-22T02:51:48;39.10;;;29.92;;
52866;SDS011;38739;53.324;6.862;2023-06-22T02:54:14;41.03;;;31.13;;
52866;SDS011;38739;53.324;6.862;2023-06-22T02:56:41;38.60;;;29.52;;
52866;SDS011;38739;53.324;6.862;2023-06-22T02:59:09;39.67;;;31.77;;
52866;SDS011;38739;53.324;6.862;2023-06-22T03:01:36;41.08;;;32.85;;
52866;SDS011;38739;53.324;6.862;2023-06-22T03:04:08;41.85;;;33.08;;
52866;SDS011;38739;53.324;6.862;2023-06-22T03:06:34;42.65;;;32.58;;
52866;SDS011;38739;53.324;6.862;2023-06-22T03:09:01;41.03;;;31.85;;
52866;SDS011;38739;53.324;6.862;2023-06-22T03:11:29;39.60;;;32.83;;
52866;SDS011;38739;53.324;6.862;2023-06-22T03:13:56;43.92;;;33.15;;
52866;SDS011;38739;53.324;6.862;2023-06-22T03:16:21;41.67;;;33.90;;
52866;SDS011;38739;53.324;6.862;2023-06-22T03:18:47;36.83;;;32.15;;
52866;SDS011;38739;53.324;6.862;2023-06-22T03:21:13;39.15;;;32.05;;
52866;SDS011;38739;53.324;6.862;2023-06-22T03:23:40;39.97;;;32.30;;
52866;SDS011;38739;53.324;6.862;2023-06-22T03:26:06;39.55;;;32.80;;
52866;SDS011;38739;53.324;6.862;2023-06-22T03:28:33;41.08;;;33.70;;
52866;SDS011;38739;53.324;6.862;2023-06-22T03:30:58;41.13;;;31.98;;
52866;SDS011;38739;53.324;6.862;2023-06-22T03:33:24;40.30;;;32.88;;
52866;SDS011;38739;53.324;6.862;2023-06-22T03:35:50;41.72;;;35.15;;
52866;SDS011;38739;53.324;6.862;2023-06-22T03:38:16;45.40;;;36.38;;
52866;SDS011;38739;53.324;6.862;2023-06-22T03:40:42;49.15;;;38.72;;
52866;SDS011;38739;53.324;6.862;2023-06-22T03:43:08;43.97;;;36.25;;
52866;SDS011;38739;53.324;6.862;2023-06-22T03:45:33;47.00;;;38.22;;
52866;SDS011;38739;53.324;6.862;2023-06-22T03:48:00;48.65;;;38.17;;
52866;SDS011;38739;53.324;6.862;2023-06-22T03:50:26;48.25;;;37.92;;
52866;SDS011;38739;53.324;6.862;2023-06-22T03:52:52;46.10;;;37.95;;
52866;SDS011;38739;53.324;6.862;2023-06-22T03:55:19;50.65;;;40.25;;
52866;SDS011;38739;53.324;6.862;2023-06-22T03:57:45;47.42;;;37.40;;
52866;SDS011;38739;53.324;6.862;2023-06-22T04:00:11;48.45;;;37.58;;
52866;SDS011;38739;53.324;6.862;2023-06-22T04:02:37;45.20;;;36.72;;
52866;SDS011;38739;53.324;6.862;2023-06-22T04:05:04;53.30;;;38.78;;
52866;SDS011;38739;53.324;6.862;2023-06-22T04:07:31;48.30;;;37.72;;
52866;SDS011;38739;53.324;6.862;2023-06-22T04:09:56;45.10;;;35.35;;
52866;SDS011;38739;53.324;6.862;2023-06-22T04:12:22;54.78;;;42.00;;
52866;SDS011;38739;53.324;6.862;2023-06-22T04:14:48;53.45;;;41.13;;
52866;SDS011;38739;53.324;6.862;2023-06-22T04:17:14;51.35;;;40.22;;
52866;SDS011;38739;53.324;6.862;2023-06-22T04:19:40;45.05;;;37.08;;
52866;SDS011;38739;53.324;6.862;2023-06-22T04:22:06;49.88;;;40.08;;
52866;SDS011;38739;53.324;6.862;2023-06-22T04:24:32;52.90;;;40.72;;
52866;SDS011;38739;53.324;6.862;2023-06-22T04:26:58;49.33;;;39.80;;
52866;SDS011;38739;53.324;6.862;2023-06-22T04:29:27;45.60;;;36.30;;
52866;SDS011;38739;53.324;6.862;2023-06-22T04:31:56;41.33;;;34.13;;
52866;SDS011;38739;53.324;6.862;2023-06-22T04:34:23;45.58;;;36.45;;
52866;SDS011;38739;53.324;6.862;2023-06-22T04:36:53;45.85;;;36.88;;
52866;SDS011;38739;53.324;6.862;2023-06-22T04:39:19;47.00;;;37.22;;
52866;SDS011;38739;53.324;6.862;2023-06-22T04:41:44;55.45;;;42.33;;
52866;SDS011;38739;53.324;6.862;2023-06-22T04:44:17;51.22;;;38.42;;
52866;SDS011;38739;53.324;6.862;2023-06-22T04:46:53;56.97;;;42.88;;
52866;SDS011;38739;53.324;6.862;2023-06-22T04:51:58;49.58;;;38.08;;
52866;SDS011;38739;53.324;6.862;2023-06-22T04:54:24;53.25;;;40.67;;
52866;SDS011;38739;53.324;6.862;2023-06-22T04:56:49;74.22;;;50.55;;
52866;SDS011;38739;53.324;6.862;2023-06-22T04:59:21;62.58;;;46.70;;
52866;SDS011;38739;53.324;6.862;2023-06-22T05:01:47;65.03;;;45.38;;
52866;SDS011;38739;53.324;6.862;2023-06-22T05:04:13;79.68;;;53.75;;
52866;SDS011;38739;53.324;6.862;2023-06-22T05:06:39;66.00;;;47.17;;
52866;SDS011;38739;53.324;6.862;2023-06-22T05:09:04;57.80;;;42.55;;
52866;SDS011;38739;53.324;6.862;2023-06-22T05:11:30;56.05;;;42.30;;
52866;SDS011;38739;53.324;6.862;2023-06-22T05:13:56;58.38;;;43.42;;
52866;SDS011;38739;53.324;6.862;2023-06-22T05:16:22;56.47;;;41.60;;
52866;SDS011;38739;53.324;6.862;2023-06-22T05:18:51;58.65;;;42.63;;
52866;SDS011;38739;53.324;6.862;2023-06-22T05:21:21;57.60;;;42.60;;
52866;SDS011;38739;53.324;6.862;2023-06-22T05:23:48;56.22;;;43.72;;
52866;SDS011;38739;53.324;6.862;2023-06-22T05:26:13;61.20;;;44.60;;
52866;SDS011;38739;53.324;6.862;2023-06-22T05:28:39;61.67;;;45.15;;
52866;SDS011;38739;53.324;6.862;2023-06-22T05:31:05;53.60;;;40.95;;
52866;SDS011;38739;53.324;6.862;2023-06-22T05:33:30;58.55;;;42.95;;
52866;SDS011;38739;53.324;6.862;2023-06-22T05:35:56;57.05;;;43.00;;
52866;SDS011;38739;53.324;6.862;2023-06-22T05:38:22;64.90;;;44.90;;
52866;SDS011;38739;53.324;6.862;2023-06-22T05:40:47;55.17;;;40.00;;
52866;SDS011;38739;53.324;6.862;2023-06-22T05:43:13;58.63;;;42.47;;
52866;SDS011;38739;53.324;6.862;2023-06-22T05:45:39;50.03;;;36.72;;
52866;SDS011;38739;53.324;6.862;2023-06-22T05:48:04;49.45;;;35.55;;
52866;SDS011;38739;53.324;6.862;2023-06-22T05:50:30;47.45;;;34.78;;
52866;SDS011;38739;53.324;6.862;2023-06-22T05:52:56;45.47;;;34.83;;
52866;SDS011;38739;53.324;6.862;2023-06-22T05:55:22;42.97;;;31.92;;
52866;SDS011;38739;53.324;6.862;2023-06-22T05:57:47;40.97;;;32.38;;
52866;SDS011;38739;53.324;6.862;2023-06-22T06:00:13;38.70;;;30.85;;
52866;SDS011;38739;53.324;6.862;2023-06-22T06:02:40;34.90;;;28.70;;
52866;SDS011;38739;53.324;6.862;2023-06-22T06:05:12;35.47;;;26.80;;
52866;SDS011;38739;53.324;6.862;2023-06-22T06:07:41;30.88;;;24.88;;
52866;SDS011;38739;53.324;6.862;2023-06-22T06:10:07;29.38;;;24.05;;
52866;SDS011;38739;53.324;6.862;2023-06-22T06:12:34;30.92;;;24.02;;
52866;SDS011;38739;53.324;6.862;2023-06-22T06:14:59;27.58;;;21.15;;
52866;SDS011;38739;53.324;6.862;2023-06-22T06:17:25;25.20;;;22.23;;
52866;SDS011;38739;53.324;6.862;2023-06-22T06:19:51;25.58;;;20.88;;
52866;SDS011;38739;53.324;6.862;2023-06-22T06:22:17;22.80;;;18.20;;
52866;SDS011;38739;53.324;6.862;2023-06-22T06:24:44;22.17;;;18.90;;
52866;SDS011;38739;53.324;6.862;2023-06-22T06:27:10;21.75;;;18.08;;
52866;SDS011;38739;53.324;6.862;2023-06-22T06:29:36;21.83;;;17.63;;
52866;SDS011;38739;53.324;6.862;2023-06-22T06:32:02;21.00;;;18.13;;
52866;SDS011;38739;53.324;6.862;2023-06-22T06:34:28;23.05;;;17.45;;
52866;SDS011;38739;53.324;6.862;2023-06-22T06:36:54;21.60;;;16.25;;
52866;SDS011;38739;53.324;6.862;2023-06-22T06:39:19;20.33;;;16.60;;
52866;SDS011;38739;53.324;6.862;2023-06-22T06:41:45;25.63;;;15.82;;
52866;SDS011;38739;53.324;6.862;2023-06-22T06:44:11;19.42;;;15.38;;
52866;SDS011;38739;53.324;6.862;2023-06-22T06:46:37;20.40;;;15.85;;
52866;SDS011;38739;53.324;6.862;2023-06-22T06:49:03;18.50;;;15.30;;
52866;SDS011;38739;53.324;6.862;2023-06-22T06:51:29;18.80;;;15.38;;
52866;SDS011;38739;53.324;6.862;2023-06-22T06:53:54;15.68;;;13.70;;
52866;SDS011;38739;53.324;6.862;2023-06-22T06:56:20;16.95;;;12.68;;
52866;SDS011;38739;53.324;6.862;2023-06-22T06:58:46;20.88;;;13.85;;
52866;SDS011;38739;53.324;6.862;2023-06-22T07:01:12;17.33;;;11.80;;
52866;SDS011;38739;53.324;6.862;2023-06-22T07:03:38;14.98;;;10.50;;
52866;SDS011;38739;53.324;6.862;2023-06-22T07:06:03;11.82;;;9.40;;
52866;SDS011;38739;53.324;6.862;2023-06-22T07:08:29;9.88;;;8.05;;
52866;SDS011;38739;53.324;6.862;2023-06-22T07:10:55;14.07;;;10.52;;
52866;SDS011;38739;53.324;6.862;2023-06-22T07:13:21;13.65;;;10.43;;
52866;SDS011;38739;53.324;6.862;2023-06-22T07:15:46;13.77;;;10.30;;
52866;SDS011;38739;53.324;6.862;2023-06-22T07:18:12;13.10;;;10.48;;
52866;SDS011;38739;53.324;6.862;2023-06-22T07:20:38;13.43;;;10.15;;
52866;SDS011;38739;53.324;6.862;2023-06-22T07:23:04;13.15;;;10.45;;
52866;SDS011;38739;53.324;6.862;2023-06-22T07:25:30;11.38;;;9.25;;
52866;SDS011;38739;53.324;6.862;2023-06-22T07:27:57;13.20;;;10.02;;
52866;SDS011;38739;53.324;6.862;2023-06-22T07:30:31;13.02;;;9.77;;
52866;SDS011;38739;53.324;6.862;2023-06-22T07:32:57;15.77;;;11.05;;
52866;SDS011;38739;53.324;6.862;2023-06-22T07:35:23;13.90;;;9.25;;
52866;SDS011;38739;53.324;6.862;2023-06-22T07:37:50;11.10;;;8.65;;
52866;SDS011;38739;53.324;6.862;2023-06-22T07:40:15;9.13;;;7.65;;
52866;SDS011;38739;53.324;6.862;2023-06-22T07:42:41;10.25;;;6.88;;
52866;SDS011;38739;53.324;6.862;2023-06-22T07:45:07;8.95;;;6.63;;
52866;SDS011;38739;53.324;6.862;2023-06-22T07:47:33;8.23;;;6.15;;
52866;SDS011;38739;53.324;6.862;2023-06-22T07:50:00;10.38;;;6.45;;
52866;SDS011;38739;53.324;6.862;2023-06-22T07:52:27;7.25;;;5.65;;
52866;SDS011;38739;53.324;6.862;2023-06-22T07:54:53;6.35;;;5.35;;
52866;SDS011;38739;53.324;6.862;2023-06-22T07:57:19;8.88;;;5.30;;
52866;SDS011;38739;53.324;6.862;2023-06-22T07:59:45;8.38;;;6.40;;
52866;SDS011;38739;53.324;6.862;2023-06-22T08:02:11;10.45;;;6.38;;
52866;SDS011;38739;53.324;6.862;2023-06-22T08:04:37;7.97;;;6.75;;
52866;SDS011;38739;53.324;6.862;2023-06-22T08:07:03;7.13;;;5.88;;
52866;SDS011;38739;53.324;6.862;2023-06-22T08:09:30;9.70;;;7.00;;
52866;SDS011;38739;53.324;6.862;2023-06-22T08:11:56;8.57;;;6.20;;
52866;SDS011;38739;53.324;6.862;2023-06-22T08:14:26;10.50;;;7.20;;
52866;SDS011;38739;53.324;6.862;2023-06-22T08:16:52;10.52;;;8.55;;
52866;SDS011;38739;53.324;6.862;2023-06-22T08:19:18;11.52;;;8.38;;
52866;SDS011;38739;53.324;6.862;2023-06-22T08:21:43;10.10;;;7.10;;
52866;SDS011;38739;53.324;6.862;2023-06-22T08:24:09;10.73;;;7.50;;
52866;SDS011;38739;53.324;6.862;2023-06-22T08:26:35;10.88;;;7.93;;
52866;SDS011;38739;53.324;6.862;2023-06-22T08:29:03;6.85;;;5.65;;
52866;SDS011;38739;53.324;6.862;2023-06-22T08:31:28;7.78;;;6.03;;
52866;SDS011;38739;53.324;6.862;2023-06-22T08:33:55;9.73;;;6.20;;
52866;SDS011;38739;53.324;6.862;2023-06-22T08:36:21;7.18;;;5.85;;
52866;SDS011;38739;53.324;6.862;2023-06-22T08:38:47;8.40;;;6.70;;
52866;SDS011;38739;53.324;6.862;2023-06-22T08:41:16;8.65;;;7.20;;
52866;SDS011;38739;53.324;6.862;2023-06-22T08:43:42;8.90;;;6.55;;
52866;SDS011;38739;53.324;6.862;2023-06-22T08:46:09;6.45;;;5.82;;
52866;SDS011;38739;53.324;6.862;2023-06-22T08:48:35;8.07;;;5.65;;
52866;SDS011;38739;53.324;6.862;2023-06-22T08:51:01;6.85;;;5.70;;
52866;SDS011;38739;53.324;6.862;2023-06-22T08:53:28;6.22;;;5.03;;
52866;SDS011;38739;53.324;6.862;2023-06-22T08:55:54;10.40;;;6.75;;
52866;SDS011;38739;53.324;6.862;2023-06-22T08:58:19;6.72;;;5.28;;
52866;SDS011;38739;53.324;6.862;2023-06-22T09:00:46;6.60;;;5.00;;
52866;SDS011;38739;53.324;6.862;2023-06-22T09:03:12;5.53;;;4.50;;
52866;SDS011;38739;53.324;6.862;2023-06-22T09:05:38;6.97;;;5.82;;
52866;SDS011;38739;53.324;6.862;2023-06-22T09:08:04;7.88;;;5.80;;
52866;SDS011;38739;53.324;6.862;2023-06-22T09:10:30;7.88;;;5.85;;
52866;SDS011;38739;53.324;6.862;2023-06-22T09:12:56;9.30;;;5.95;;
52866;SDS011;38739;53.324;6.862;2023-06-22T09:15:22;7.22;;;4.95;;
52866;SDS011;38739;53.324;6.862;2023-06-22T09:17:48;5.95;;;5.07;;
52866;SDS011;38739;53.324;6.862;2023-06-22T09:20:14;6.72;;;5.50;;
52866;SDS011;38739;53.324;6.862;2023-06-22T09:22:40;9.20;;;6.20;;
52866;SDS011;38739;53.324;6.862;2023-06-22T09:25:06;7.18;;;4.97;;
52866;SDS011;38739;53.324;6.862;2023-06-22T09:27:32;6.78;;;5.07;;
52866;SDS011;38739;53.324;6.862;2023-06-22T09:29:58;7.70;;;5.88;;
52866;SDS011;38739;53.324;6.862;2023-06-22T09:32:27;8.35;;;5.80;;
52866;SDS011;38739;53.324;6.862;2023-06-22T09:34:52;8.85;;;5.85;;
52866;SDS011;38739;53.324;6.862;2023-06-22T09:37:18;9.05;;;6.18;;
52866;SDS011;38739;53.324;6.862;2023-06-22T09:39:44;7.00;;;6.30;;
52866;SDS011;38739;53.324;6.862;2023-06-22T09:42:09;6.20;;;5.20;;
52866;SDS011;38739;53.324;6.862;2023-06-22T09:44:35;6.43;;;5.18;;
52866;SDS011;38739;53.324;6.862;2023-06-22T09:47:01;7.95;;;6.35;;
52866;SDS011;38739;53.324;6.862;2023-06-22T09:49:27;7.25;;;5.88;;
52866;SDS011;38739;53.324;6.862;2023-06-22T09:51:52;9.63;;;7.03;;
52866;SDS011;38739;53.324;6.862;2023-06-22T09:54:18;7.20;;;5.72;;
52866;SDS011;38739;53.324;6.862;2023-06-22T09:56:44;7.00;;;5.47;;
52866;SDS011;38739;53.324;6.862;2023-06-22T09:59:09;6.45;;;4.80;;
52866;SDS011;38739;53.324;6.862;2023-06-22T10:01:35;7.43;;;5.43;;
52866;SDS011;38739;53.324;6.862;2023-06-22T10:04:01;7.57;;;5.93;;
52866;SDS011;38739;53.324;6.862;2023-06-22T10:06:27;7.22;;;5.75;;
52866;SDS011;38739;53.324;6.862;2023-06-22T10:08:53;7.35;;;5.40;;
52866;SDS011;38739;53.324;6.862;2023-06-22T10:11:19;6.40;;;4.80;;
52866;SDS011;38739;53.324;6.862;2023-06-22T10:13:45;6.03;;;4.88;;
52866;SDS011;38739;53.324;6.862;2023-06-22T10:16:10;6.32;;;5.38;;
52866;SDS011;38739;53.324;6.862;2023-06-22T10:18:36;9.30;;;6.18;;
52866;SDS011;38739;53.324;6.862;2023-06-22T10:21:02;6.85;;;5.30;;
52866;SDS011;38739;53.324;6.862;2023-06-22T10:23:27;5.30;;;4.65;;
52866;SDS011;38739;53.324;6.862;2023-06-22T10:25:53;6.78;;;5.40;;
52866;SDS011;38739;53.324;6.862;2023-06-22T10:28:19;7.50;;;5.13;;
52866;SDS011;38739;53.324;6.862;2023-06-22T10:30:45;6.20;;;5.03;;
52866;SDS011;38739;53.324;6.862;2023-06-22T10:33:11;7.45;;;5.72;;
52866;SDS011;38739;53.324;6.862;2023-06-22T10:35:37;10.07;;;5.22;;
52866;SDS011;38739;53.324;6.862;2023-06-22T10:38:03;6.82;;;4.97;;
52866;SDS011;38739;53.324;6.862;2023-06-22T10:40:29;6.82;;;5.60;;
52866;SDS011;38739;53.324;6.862;2023-06-22T10:42:55;6.90;;;4.60;;
52866;SDS011;38739;53.324;6.862;2023-06-22T10:45:20;6.30;;;4.78;;
52866;SDS011;38739;53.324;6.862;2023-06-22T10:47:46;7.30;;;4.95;;
52866;SDS011;38739;53.324;6.862;2023-06-22T10:50:12;8.25;;;5.10;;
52866;SDS011;38739;53.324;6.862;2023-06-22T10:52:38;5.55;;;4.07;;
52866;SDS011;38739;53.324;6.862;2023-06-22T10:55:04;5.82;;;4.30;;
52866;SDS011;38739;53.324;6.862;2023-06-22T10:57:29;6.03;;;4.65;;
52866;SDS011;38739;53.324;6.862;2023-06-22T10:59:55;5.68;;;3.75;;
52866;SDS011;38739;53.324;6.862;2023-06-22T11:02:21;11.95;;;3.58;;
52866;SDS011;38739;53.324;6.862;2023-06-22T11:04:46;7.55;;;3.60;;
52866;SDS011;38739;53.324;6.862;2023-06-22T11:07:12;5.70;;;3.65;;
52866;SDS011;38739;53.324;6.862;2023-06-22T11:09:38;4.55;;;3.65;;
52866;SDS011;38739;53.324;6.862;2023-06-22T11:12:04;5.80;;;3.60;;
52866;SDS011;38739;53.324;6.862;2023-06-22T11:14:31;5.35;;;3.25;;
52866;SDS011;38739;53.324;6.862;2023-06-22T11:16:58;5.72;;;3.88;;
52866;SDS011;38739;53.324;6.862;2023-06-22T11:19:24;5.25;;;2.80;;
52866;SDS011;38739;53.324;6.862;2023-06-22T11:21:50;5.43;;;4.40;;
52866;SDS011;38739;53.324;6.862;2023-06-22T11:24:16;6.43;;;4.25;;
52866;SDS011;38739;53.324;6.862;2023-06-22T11:26:42;6.13;;;4.00;;
52866;SDS011;38739;53.324;6.862;2023-06-22T11:29:08;6.40;;;4.18;;
52866;SDS011;38739;53.324;6.862;2023-06-22T11:31:36;7.25;;;4.25;;
52866;SDS011;38739;53.324;6.862;2023-06-22T11:34:03;4.57;;;3.72;;
52866;SDS011;38739;53.324;6.862;2023-06-22T11:36:29;4.68;;;2.97;;
52866;SDS011;38739;53.324;6.862;2023-06-22T11:38:57;5.95;;;4.30;;
52866;SDS011;38739;53.324;6.862;2023-06-22T11:41:23;4.93;;;3.83;;
52866;SDS011;38739;53.324;6.862;2023-06-22T11:43:49;8.55;;;4.50;;
52866;SDS011;38739;53.324;6.862;2023-06-22T11:46:15;5.28;;;3.25;;
52866;SDS011;38739;53.324;6.862;2023-06-22T11:48:40;6.80;;;4.32;;
52866;SDS011;38739;53.324;6.862;2023-06-22T11:51:06;5.53;;;4.30;;
52866;SDS011;38739;53.324;6.862;2023-06-22T11:53:33;6.70;;;3.83;;
52866;SDS011;38739;53.324;6.862;2023-06-22T11:56:00;6.45;;;4.30;;
52866;SDS011;38739;53.324;6.862;2023-06-22T11:58:26;4.28;;;3.85;;
52866;SDS011;38739;53.324;6.862;2023-06-22T12:00:52;5.85;;;4.15;;
52866;SDS011;38739;53.324;6.862;2023-06-22T12:03:19;5.78;;;3.83;;
52866;SDS011;38739;53.324;6.862;2023-06-22T12:05:46;6.95;;;4.10;;
52866;SDS011;38739;53.324;6.862;2023-06-22T12:08:12;4.25;;;3.30;;
52866;SDS011;38739;53.324;6.862;2023-06-22T12:10:39;5.00;;;3.60;;
52866;SDS011;38739;53.324;6.862;2023-06-22T12:13:05;6.68;;;4.10;;
52866;SDS011;38739;53.324;6.862;2023-06-22T12:15:30;5.50;;;3.45;;
52866;SDS011;38739;53.324;6.862;2023-06-22T12:17:56;6.20;;;3.50;;
52866;SDS011;38739;53.324;6.862;2023-06-22T12:20:22;5.00;;;2.75;;
52866;SDS011;38739;53.324;6.862;2023-06-22T12:22:47;4.38;;;3.22;;
52866;SDS011;38739;53.324;6.862;2023-06-22T12:25:16;3.13;;;2.53;;
52866;SDS011;38739;53.324;6.862;2023-06-22T12:27:42;5.35;;;3.30;;
52866;SDS011;38739;53.324;6.862;2023-06-22T12:30:08;9.23;;;3.58;;
52866;SDS011;38739;53.324;6.862;2023-06-22T12:32:34;5.85;;;2.83;;
52866;SDS011;38739;53.324;6.862;2023-06-22T12:35:00;4.22;;;2.95;;
52866;SDS011;38739;53.324;6.862;2023-06-22T12:37:25;6.10;;;3.00;;
52866;SDS011;38739;53.324;6.862;2023-06-22T12:39:51;4.88;;;2.80;;
52866;SDS011;38739;53.324;6.862;2023-06-22T12:42:18;3.17;;;2.58;;
52866;SDS011;38739;53.324;6.862;2023-06-22T12:44:43;3.80;;;2.85;;
52866;SDS011;38739;53.324;6.862;2023-06-22T12:47:09;4.85;;;2.63;;
52866;SDS011;38739;53.324;6.862;2023-06-22T12:49:35;4.43;;;2.60;;
52866;SDS011;38739;53.324;6.862;2023-06-22T12:52:01;2.63;;;2.40;;
52866;SDS011;38739;53.324;6.862;2023-06-22T12:54:27;4.00;;;2.45;;
52866;SDS011;38739;53.324;6.862;2023-06-22T12:56:56;3.47;;;2.53;;
52866;SDS011;38739;53.324;6.862;2023-06-22T12:59:21;5.30;;;2.60;;
52866;SDS011;38739;53.324;6.862;2023-06-22T13:01:47;3.85;;;2.70;;
52866;SDS011;38739;53.324;6.862;2023-06-22T13:04:13;4.95;;;2.72;;
52866;SDS011;38739;53.324;6.862;2023-06-22T13:06:43;4.82;;;2.60;;
52866;SDS011;38739;53.324;6.862;2023-06-22T13:09:13;3.67;;;2.40;;
52866;SDS011;38739;53.324;6.862;2023-06-22T13:11:40;5.45;;;2.90;;
52866;SDS011;38739;53.324;6.862;2023-06-22T13:14:07;4.00;;;2.47;;
52866;SDS011;38739;53.324;6.862;2023-06-22T13:16:33;5.05;;;2.78;;
52866;SDS011;38739;53.324;6.862;2023-06-22T13:18:58;3.35;;;2.47;;
52866;SDS011;38739;53.324;6.862;2023-06-22T13:21:24;4.45;;;2.70;;
52866;SDS011;38739;53.324;6.862;2023-06-22T13:23:50;4.55;;;2.72;;
52866;SDS011;38739;53.324;6.862;2023-06-22T13:26:15;4.80;;;2.90;;
52866;SDS011;38739;53.324;6.862;2023-06-22T13:28:41;5.30;;;2.63;;
52866;SDS011;38739;53.324;6.862;2023-06-22T13:31:06;4.72;;;2.63;;
52866;SDS011;38739;53.324;6.862;2023-06-22T13:33:32;4.22;;;2.25;;
52866;SDS011;38739;53.324;6.862;2023-06-22T13:36:01;4.28;;;2.25;;
52866;SDS011;38739;53.324;6.862;2023-06-22T13:38:28;3.67;;;2.30;;
52866;SDS011;38739;53.324;6.862;2023-06-22T13:40:55;3.38;;;2.17;;
52866;SDS011;38739;53.324;6.862;2023-06-22T13:43:23;3.97;;;2.10;;
52866;SDS011;38739;53.324;6.862;2023-06-22T13:45:49;3.40;;;2.40;;
52866;SDS011;38739;53.324;6.862;2023-06-22T13:48:15;4.25;;;2.55;;
52866;SDS011;38739;53.324;6.862;2023-06-22T13:50:40;2.78;;;1.98;;
52866;SDS011;38739;53.324;6.862;2023-06-22T13:53:06;3.95;;;2.10;;
52866;SDS011;38739;53.324;6.862;2023-06-22T13:55:32;5.32;;;3.17;;
52866;SDS011;38739;53.324;6.862;2023-06-22T13:57:57;3.58;;;2.28;;
52866;SDS011;38739;53.324;6.862;2023-06-22T14:00:23;6.25;;;2.55;;
52866;SDS011;38739;53.324;6.862;2023-06-22T14:02:49;5.80;;;2.78;;
52866;SDS011;38739;53.324;6.862;2023-06-22T14:05:14;5.70;;;2.38;;
52866;SDS011;38739;53.324;6.862;2023-06-22T14:07:40;5.03;;;2.13;;
52866;SDS011;38739;53.324;6.862;2023-06-22T14:10:06;4.05;;;2.70;;
52866;SDS011;38739;53.324;6.862;2023-06-22T14:12:32;4.32;;;2.35;;
52866;SDS011;38739;53.324;6.862;2023-06-22T14:14:58;4.38;;;2.00;;
52866;SDS011;38739;53.324;6.862;2023-06-22T14:17:23;3.85;;;2.08;;
52866;SDS011;38739;53.324;6.862;2023-06-22T14:19:51;3.78;;;2.10;;
52866;SDS011;38739;53.324;6.862;2023-06-22T14:22:18;3.75;;;2.10;;
52866;SDS011;38739;53.324;6.862;2023-06-22T14:24:47;4.38;;;2.13;;
52866;SDS011;38739;53.324;6.862;2023-06-22T14:27:13;4.65;;;2.20;;
52866;SDS011;38739;53.324;6.862;2023-06-22T14:29:39;2.55;;;1.80;;
52866;SDS011;38739;53.324;6.862;2023-06-22T14:32:05;4.55;;;1.50;;
52866;SDS011;38739;53.324;6.862;2023-06-22T14:34:32;3.55;;;1.88;;
52866;SDS011;38739;53.324;6.862;2023-06-22T14:37:00;2.20;;;1.85;;
52866;SDS011;38739;53.324;6.862;2023-06-22T14:39:27;4.55;;;1.77;;